Time;durP1;ratioP1;P1;durP2;ratioP2;P2;SDS_P1;SDS_P2;PMS_P1;PMS_P2;Temp;Humidity;BMP_temperature;BMP_pressure;BME280_temperature;BME280_humidity;BME280_pressure;Samples;Min_cycle;Max_cycle;Signal;HPM_P1;HPM_P2
2021/12/19 00:02:37;;;;;;;13.00;8.37;;;;;;;-0.50;100.00;95319.94;5104186;28;20200;-85
2021/12/19 00:10:43;;;;;;;15.50;9.47;;;;;;;-0.64;100.00;95294.81;5089554;28;20683;-86
2021/12/19 00:13:12;;;;;;;16.80;9.63;;;;;;;-0.58;100.00;95307.03;5092555;28;20204;-86
2021/12/19 00:15:39;;;;;;;19.80;9.97;;;;;;;-0.55;100.00;95311.88;5099856;28;20250;-84
2021/12/19 00:18:07;;;;;;;17.43;9.70;;;;;;;-0.48;100.00;95312.94;5094138;28;20674;-85
2021/12/19 00:20:34;;;;;;;18.60;9.97;;;;;;;-0.64;100.00;95316.03;5097395;28;20272;-82
2021/12/19 00:23:01;;;;;;;16.43;8.77;;;;;;;-0.85;100.00;95302.59;5092309;28;20205;-84
2021/12/19 00:25:31;;;;;;;15.00;8.80;;;;;;;-0.89;100.00;95303.78;5098452;28;20233;-83
2021/12/19 00:27:59;;;;;;;14.37;8.37;;;;;;;-0.77;100.00;95296.81;5094599;28;20215;-84
2021/12/19 00:30:28;;;;;;;14.20;8.70;;;;;;;-0.74;100.00;95294.00;5094711;28;20211;-83
2021/12/19 00:32:56;;;;;;;13.73;7.90;;;;;;;-0.81;100.00;95298.03;5090625;28;20606;-86
2021/12/19 00:35:26;;;;;;;16.53;9.83;;;;;;;-0.91;100.00;95290.34;5095164;28;20200;-84
2021/12/19 00:37:54;;;;;;;19.03;10.53;;;;;;;-0.94;100.00;95292.34;5087098;28;20232;-84
2021/12/19 00:40:23;;;;;;;22.43;11.63;;;;;;;-0.90;100.00;95289.44;5098839;28;20204;-83
2021/12/19 00:43:02;;;;;;;23.10;11.53;;;;;;;-0.80;100.00;95291.97;5094408;28;20560;-84
2021/12/19 00:45:34;;;;;;;21.67;11.80;;;;;;;-0.86;100.00;95295.84;5094635;28;20204;-83
2021/12/19 00:48:04;;;;;;;23.20;12.03;;;;;;;-1.08;100.00;95297.84;5097716;28;20201;-82
2021/12/19 00:50:32;;;;;;;24.20;12.53;;;;;;;-1.30;100.00;95289.47;5097218;28;20640;-83
2021/12/19 00:53:01;;;;;;;22.43;12.63;;;;;;;-1.14;100.00;95294.06;5094019;28;20210;-83
2021/12/19 00:55:29;;;;;;;23.33;12.27;;;;;;;-1.10;100.00;95272.50;5098684;28;20254;-84
2021/12/19 00:57:58;;;;;;;20.37;11.80;;;;;;;-0.94;100.00;95285.53;5096933;28;20232;-82
2021/12/19 01:00:30;;;;;;;21.23;11.77;;;;;;;-1.02;100.00;95275.19;5094264;28;20233;-84
2021/12/19 01:03:01;;;;;;;25.50;12.20;;;;;;;-1.14;100.00;95276.22;5094471;28;20323;-78
2021/12/19 01:05:32;;;;;;;19.50;11.33;;;;;;;-1.05;100.00;95275.44;5089728;28;20291;-77
2021/12/19 01:08:00;;;;;;;23.13;11.40;;;;;;;-0.97;100.00;95274.78;5100293;28;20205;-77
2021/12/19 01:10:29;;;;;;;18.17;10.63;;;;;;;-0.98;100.00;95271.41;5095526;28;20231;-78
2021/12/19 01:12:57;;;;;;;24.07;11.30;;;;;;;-1.13;100.00;95264.28;5090425;28;20612;-77
2021/12/19 01:15:26;;;;;;;16.83;10.20;;;;;;;-1.22;100.00;95268.44;5085067;28;20199;-77
2021/12/19 01:17:54;;;;;;;23.00;11.77;;;;;;;-1.15;100.00;95259.31;5089961;28;20224;-78
2021/12/19 01:20:26;;;;;;;27.00;13.33;;;;;;;-0.95;100.00;95255.84;5084321;28;20205;-76
2021/12/19 01:22:56;;;;;;;23.33;12.93;;;;;;;-0.90;100.00;95258.00;5094394;28;20761;-79
2021/12/19 01:25:24;;;;;;;22.30;12.10;;;;;;;-0.93;100.00;95251.44;5101257;28;20702;-77
2021/12/19 01:27:55;;;;;;;19.07;10.70;;;;;;;-1.04;100.00;95248.22;5090506;28;20288;-77
2021/12/19 01:30:23;;;;;;;19.60;10.53;;;;;;;-0.96;100.00;95243.25;5088587;28;20204;-78
2021/12/19 01:32:53;;;;;;;22.37;12.07;;;;;;;-0.83;100.00;95231.00;5091367;28;20299;-76
2021/12/19 01:35:24;;;;;;;18.37;11.17;;;;;;;-0.79;100.00;95238.28;5096591;28;20204;-78
2021/12/19 01:37:53;;;;;;;17.93;10.83;;;;;;;-0.85;100.00;95243.91;5090024;28;20315;-78
2021/12/19 01:40:22;;;;;;;18.77;10.77;;;;;;;-0.95;100.00;95244.88;5096368;28;20218;-79
2021/12/19 01:42:53;;;;;;;18.37;11.30;;;;;;;-0.93;100.00;95233.59;5089598;28;20227;-77
2021/12/19 01:45:26;;;;;;;19.47;11.40;;;;;;;-0.79;100.00;95222.97;5091354;28;20205;-77
2021/12/19 01:47:54;;;;;;;17.93;10.30;;;;;;;-0.72;100.00;95233.44;5090012;28;20742;-77
2021/12/19 01:50:24;;;;;;;21.53;12.07;;;;;;;-0.72;100.00;95228.31;5094776;28;20235;-78
2021/12/19 01:52:52;;;;;;;18.23;10.10;;;;;;;-0.81;100.00;95224.84;5088140;28;20200;-77
2021/12/19 01:55:23;;;;;;;21.83;11.63;;;;;;;-0.81;100.00;95229.16;5089289;28;20750;-77
2021/12/19 01:57:52;;;;;;;18.77;10.83;;;;;;;-0.76;100.00;95222.72;5099783;28;20224;-78
2021/12/19 02:00:24;;;;;;;20.67;11.77;;;;;;;-0.63;100.00;95217.31;5092264;28;20288;-78
2021/12/19 02:02:53;;;;;;;18.93;10.37;;;;;;;-0.76;100.00;95215.06;5088628;28;20196;-77
2021/12/19 02:05:24;;;;;;;21.13;11.17;;;;;;;-0.83;100.00;95203.75;5093894;28;20207;-78
2021/12/19 02:07:54;;;;;;;18.43;10.80;;;;;;;-0.78;100.00;95203.38;5092544;28;20285;-78
2021/12/19 02:10:24;;;;;;;21.47;12.10;;;;;;;-0.76;100.00;95191.28;5095160;28;20202;-78
2021/12/19 02:12:53;;;;;;;22.17;12.27;;;;;;;-0.53;100.00;95210.47;5088982;28;20197;-78
2021/12/19 02:15:25;;;;;;;20.67;12.00;;;;;;;-0.64;100.00;95208.06;5088563;28;20216;-79
2021/12/19 02:17:55;;;;;;;20.60;11.83;;;;;;;-0.76;100.00;95204.03;5094526;28;21269;-78
2021/12/19 02:20:26;;;;;;;20.47;12.33;;;;;;;-0.73;100.00;95199.47;5083094;28;20223;-78
2021/12/19 02:22:55;;;;;;;21.47;12.33;;;;;;;-0.59;100.00;95199.06;5087376;28;20320;-79
2021/12/19 02:25:22;;;;;;;21.57;11.57;;;;;;;-0.62;100.00;95199.31;5091101;28;20735;-79
2021/12/19 02:27:52;;;;;;;16.07;10.20;;;;;;;-0.58;100.00;95208.31;5079659;28;20193;-79
2021/12/19 02:30:21;;;;;;;15.07;9.73;;;;;;;-0.66;100.00;95195.44;5092788;28;20196;-78
2021/12/19 02:32:48;;;;;;;16.20;9.20;;;;;;;-0.73;100.00;95196.94;5090821;28;20205;-78
2021/12/19 02:35:21;;;;;;;16.07;10.17;;;;;;;-0.58;100.00;95197.31;5092099;28;20207;-78
2021/12/19 02:48:09;;;;;;;21.10;11.20;;;;;;;-0.74;100.00;95179.19;5073695;28;20254;-79
2021/12/19 02:48:57;;;;;;;16.63;9.40;;;;;;;-0.48;100.00;95194.72;5087819;28;20674;-76
2021/12/19 02:51:30;;;;;;;18.67;10.77;;;;;;;-0.62;100.00;95191.66;5089708;28;20231;-78
2021/12/19 02:54:00;;;;;;;20.67;11.73;;;;;;;-0.70;100.00;95189.00;5089861;28;20714;-78
2021/12/19 02:56:28;;;;;;;20.03;12.17;;;;;;;-0.63;100.00;95184.13;5084458;28;20299;-78
2021/12/19 02:58:58;;;;;;;22.63;13.23;;;;;;;-0.51;100.00;95175.38;5095751;28;20231;-78
2021/12/19 03:01:28;;;;;;;19.93;12.03;;;;;;;-0.47;100.00;95178.47;5085948;28;20208;-78
2021/12/19 03:03:56;;;;;;;20.50;12.30;;;;;;;-0.72;100.00;95173.00;5091715;28;20199;-78
2021/12/19 03:06:24;;;;;;;20.83;12.07;;;;;;;-0.84;100.00;95169.00;5094400;28;20656;-78
2021/12/19 03:08:53;;;;;;;20.07;12.33;;;;;;;-0.78;100.00;95177.88;5092489;28;20212;-79
2021/12/19 03:11:59;;;;;;;24.27;12.90;;;;;;;-0.66;100.00;95174.19;5090003;28;20200;-76
2021/12/19 03:19:55;;;;;;;26.97;14.40;;;;;;;-0.96;100.00;95171.84;5091104;28;20247;-77
2021/12/19 03:22:33;;;;;;;24.10;13.63;;;;;;;-0.86;100.00;95181.06;5094851;28;20292;-78
2021/12/19 03:25:02;;;;;;;27.87;14.57;;;;;;;-0.74;100.00;95179.19;5092790;28;20279;-78
2021/12/19 03:31:14;;;;;;;26.60;13.60;;;;;;;-1.02;100.00;95168.09;5003632;28;20212;-77
2021/12/19 03:33:44;;;;;;;25.50;13.60;;;;;;;-0.98;100.00;95166.06;5093026;27;20228;-78
2021/12/19 03:36:13;;;;;;;18.50;11.93;;;;;;;-0.92;100.00;95170.59;5092955;28;20215;-83
2021/12/19 03:38:44;;;;;;;23.80;13.23;;;;;;;-0.91;100.00;95164.56;5095535;28;20220;-84
2021/12/19 03:41:18;;;;;;;24.00;14.20;;;;;;;-1.00;100.00;95170.47;5092805;28;20204;-82
2021/12/19 03:43:47;;;;;;;23.10;13.30;;;;;;;-1.15;100.00;95170.06;5104268;28;20224;-83
2021/12/19 03:46:18;;;;;;;22.37;14.00;;;;;;;-1.08;100.00;95160.16;5100893;28;20232;-77
2021/12/19 03:48:47;;;;;;;26.83;14.33;;;;;;;-0.97;100.00;95154.91;5096046;28;20550;-78
2021/12/19 03:51:15;;;;;;;23.87;13.60;;;;;;;-0.94;100.00;95162.28;5092442;28;20632;-76
2021/12/19 03:53:46;;;;;;;24.77;13.40;;;;;;;-1.07;100.00;95151.56;5091828;28;20572;-77
2021/12/19 03:56:14;;;;;;;21.33;11.10;;;;;;;-1.18;100.00;95147.41;5096578;28;20289;-77
2021/12/19 03:58:43;;;;;;;28.00;15.23;;;;;;;-1.18;100.00;95145.66;5093615;28;20788;-77
2021/12/19 04:01:12;;;;;;;29.47;15.93;;;;;;;-1.04;100.00;95148.75;5093244;28;20216;-78
2021/12/19 04:03:45;;;;;;;26.07;14.50;;;;;;;-1.12;100.00;95116.28;5090025;28;20197;-77
2021/12/19 04:06:13;;;;;;;22.43;13.17;;;;;;;-1.11;100.00;95143.38;5090854;28;20303;-77
2021/12/19 04:08:42;;;;;;;22.17;12.97;;;;;;;-1.28;100.00;95139.78;5087852;28;20205;-78
2021/12/19 04:11:10;;;;;;;21.63;12.17;;;;;;;-1.28;100.00;95137.22;5092879;28;20623;-78
2021/12/19 04:13:38;;;;;;;24.40;13.47;;;;;;;-1.19;100.00;95138.97;5093449;28;20667;-78
2021/12/19 04:16:05;;;;;;;23.33;12.80;;;;;;;-1.10;100.00;95139.91;5088669;28;20389;-78
2021/12/19 04:18:34;;;;;;;22.90;13.70;;;;;;;-1.17;100.00;95142.19;5096066;28;20223;-77
2021/12/19 04:21:03;;;;;;;24.10;12.97;;;;;;;-1.28;100.00;95123.66;5092901;28;20303;-78
2021/12/19 04:23:31;;;;;;;26.90;13.33;;;;;;;-1.30;100.00;95125.56;5091054;28;20291;-77
2021/12/19 04:25:59;;;;;;;25.07;13.10;;;;;;;-1.23;100.00;95126.63;5098303;28;20233;-77
2021/12/19 04:28:28;;;;;;;24.07;14.17;;;;;;;-1.14;100.00;95125.81;5093121;28;20576;-78
2021/12/19 04:30:56;;;;;;;31.03;17.53;;;;;;;-1.14;100.00;95128.34;5095685;28;20195;-79
2021/12/19 04:33:27;;;;;;;31.90;17.47;;;;;;;-1.26;100.00;95124.34;5098741;28;20214;-79
2021/12/19 04:35:59;;;;;;;24.00;12.90;;;;;;;-1.30;100.00;95121.25;5093987;28;20239;-78
2021/12/19 04:55:39;;;;;;;40.13;18.00;;;;;;;-1.29;100.00;95101.66;5062439;28;20246;-78
2021/12/19 04:58:22;;;;;;;30.33;15.43;;;;;;;-1.24;100.00;95097.00;5091263;28;20205;-77
2021/12/19 05:01:06;;;;;;;29.47;15.20;;;;;;;-1.22;100.00;95102.75;5107233;28;20677;-84
2021/12/19 05:03:44;;;;;;;28.87;15.50;;;;;;;-1.22;100.00;95100.19;5102120;28;20207;-84
2021/12/19 05:06:33;;;;;;;29.70;16.30;;;;;;;-1.24;100.00;95090.13;5097311;28;20200;-84
2021/12/19 05:15:23;;;;;;;30.37;16.07;;;;;;;-1.08;100.00;95102.31;5099989;28;20172;-83
2021/12/19 05:18:03;;;;;;;31.20;16.97;;;;;;;-1.08;100.00;95107.44;5103101;28;20200;-83
2021/12/19 05:20:33;;;;;;;28.13;15.90;;;;;;;-1.09;100.00;95112.63;5096490;28;20223;-82
2021/12/19 05:23:08;;;;;;;35.80;17.57;;;;;;;-1.13;100.00;95108.78;5105526;28;20212;-84
2021/12/19 05:25:36;;;;;;;31.53;16.03;;;;;;;-1.12;100.00;95111.19;5101043;28;20244;-83
2021/12/19 05:28:06;;;;;;;35.03;16.63;;;;;;;-1.02;100.00;95106.88;5098651;28;20207;-83
2021/12/19 05:30:36;;;;;;;33.43;16.43;;;;;;;-1.03;100.00;95107.00;5095702;28;20212;-83
2021/12/19 05:33:07;;;;;;;31.00;16.20;;;;;;;-0.97;100.00;95107.28;5092520;28;20204;-82
2021/12/19 05:35:58;;;;;;;31.70;14.93;;;;;;;-0.93;100.00;95108.63;5105542;28;20211;-83
2021/12/19 05:46:43;;;;;;;26.23;15.13;;;;;;;-0.97;100.00;95094.53;5092876;28;20215;-83
2021/12/19 05:49:18;;;;;;;30.60;15.13;;;;;;;-0.99;100.00;95106.59;5092671;28;20197;-83
2021/12/19 05:51:54;;;;;;;29.90;15.47;;;;;;;-1.12;100.00;95078.03;5091675;28;20590;-83
2021/12/19 05:54:23;;;;;;;25.47;14.60;;;;;;;-0.99;100.00;95091.31;5092661;28;20205;-83
2021/12/19 05:56:51;;;;;;;32.57;17.47;;;;;;;-1.01;100.00;95085.53;5099958;28;20211;-82
2021/12/19 05:59:22;;;;;;;35.30;16.60;;;;;;;-1.00;100.00;95093.97;5096818;28;20713;-86
2021/12/19 06:01:53;;;;;;;27.10;14.83;;;;;;;-0.99;100.00;95090.50;5092309;28;20583;-83
2021/12/19 06:04:21;;;;;;;35.23;16.63;;;;;;;-0.90;100.00;95092.22;5095948;28;20254;-79
2021/12/19 06:06:51;;;;;;;27.30;14.57;;;;;;;-0.90;100.00;95093.03;5096231;28;20204;-79
2021/12/19 06:09:22;;;;;;;28.17;15.37;;;;;;;-0.91;100.00;95085.50;5097657;28;20209;-79
2021/12/19 06:11:50;;;;;;;27.87;15.30;;;;;;;-0.99;100.00;95082.84;5091423;28;20694;-78
2021/12/19 06:14:19;;;;;;;27.43;14.17;;;;;;;-0.90;100.00;95087.13;5095072;28;20291;-79
2021/12/19 06:16:47;;;;;;;30.10;16.40;;;;;;;-0.89;100.00;95083.63;5089202;28;20224;-76
2021/12/19 06:19:17;;;;;;;34.17;17.73;;;;;;;-0.84;100.00;95073.84;5091010;28;20256;-71
2021/12/19 06:21:46;;;;;;;30.97;15.83;;;;;;;-0.85;100.00;95073.03;5090437;28;20549;-71
2021/12/19 06:24:15;;;;;;;35.20;18.10;;;;;;;-0.85;100.00;95064.56;5088937;28;20267;-70
2021/12/19 06:26:44;;;;;;;40.10;19.63;;;;;;;-0.87;100.00;95066.47;5088564;28;20213;-79
2021/12/19 06:29:13;;;;;;;39.63;19.67;;;;;;;-0.83;100.00;95062.66;5083239;28;20290;-71
2021/12/19 06:31:41;;;;;;;34.53;19.17;;;;;;;-0.88;100.00;95057.19;5089349;28;20201;-70
2021/12/19 06:34:11;;;;;;;32.33;17.90;;;;;;;-0.84;100.00;95054.22;5088625;28;20200;-71
2021/12/19 06:36:41;;;;;;;35.00;19.43;;;;;;;-0.81;100.00;95053.16;5088343;28;20244;-71
2021/12/19 06:39:09;;;;;;;36.50;19.37;;;;;;;-0.66;100.00;95055.09;5086985;28;20628;-71
2021/12/19 06:41:37;;;;;;;38.17;18.70;;;;;;;-0.64;100.00;95055.78;5087150;28;20609;-72
2021/12/19 06:44:08;;;;;;;46.27;23.57;;;;;;;-0.78;100.00;95052.88;5085592;28;20315;-73
2021/12/19 06:46:35;;;;;;;35.17;19.80;;;;;;;-0.78;100.00;95048.56;5087642;28;20199;-72
2021/12/19 06:49:05;;;;;;;36.33;19.60;;;;;;;-0.66;100.00;95051.72;5086256;28;20623;-72
2021/12/19 06:51:34;;;;;;;37.77;19.87;;;;;;;-0.52;100.00;95056.41;5086958;28;20193;-71
2021/12/19 06:54:05;;;;;;;37.40;19.43;;;;;;;-0.47;100.00;95048.31;5089403;28;20196;-71
2021/12/19 06:56:33;;;;;;;48.50;27.27;;;;;;;-0.72;100.00;95029.31;5091362;28;20212;-72
2021/12/19 06:59:00;;;;;;;38.53;21.93;;;;;;;-0.59;100.00;95045.94;5090960;28;20320;-72
2021/12/19 07:01:32;;;;;;;40.83;23.10;;;;;;;-0.47;100.00;95049.13;5090911;28;20200;-71
2021/12/19 07:04:05;;;;;;;44.63;23.83;;;;;;;-0.26;100.00;95044.56;5091059;28;20204;-71
2021/12/19 07:06:33;;;;;;;51.80;26.17;;;;;;;-0.34;100.00;95053.88;5090834;28;20275;-73
2021/12/19 07:09:04;;;;;;;37.20;21.00;;;;;;;-0.38;100.00;95053.38;5091452;28;20195;-71
2021/12/19 07:11:32;;;;;;;36.90;16.87;;;;;;;-0.25;100.00;95053.84;5090801;28;20283;-71
2021/12/19 07:14:00;;;;;;;32.17;15.90;;;;;;;-0.01;100.00;95072.00;5090823;28;20723;-71
2021/12/19 07:16:28;;;;;;;27.60;13.67;;;;;;;0.17;100.00;95063.56;5092234;28;20207;-71
2021/12/19 07:18:56;;;;;;;29.07;13.27;;;;;;;0.11;100.00;95054.72;5090228;28;20204;-71
2021/12/19 07:21:28;;;;;;;23.10;11.73;;;;;;;0.07;100.00;95039.81;5090601;28;20228;-70
2021/12/19 07:23:57;;;;;;;21.90;11.30;;;;;;;0.08;100.00;95049.91;5089942;28;20188;-71
2021/12/19 07:26:28;;;;;;;17.53;10.07;;;;;;;0.12;100.00;95047.84;5091856;28;20284;-70
2021/12/19 07:28:58;;;;;;;16.53;9.53;;;;;;;0.20;100.00;95041.09;5090270;28;20208;-70
2021/12/19 07:31:29;;;;;;;18.97;11.57;;;;;;;0.07;100.00;95047.47;5091906;28;20201;-70
2021/12/19 07:33:59;;;;;;;29.30;14.00;;;;;;;0.10;100.00;95039.53;5093149;28;20207;-70
2021/12/19 07:36:35;;;;;;;29.13;14.27;;;;;;;0.07;100.00;95030.41;5088216;28;20563;-70
2021/12/19 07:39:08;;;;;;;29.93;11.93;;;;;;;0.34;100.00;95039.75;5092142;28;20224;-69
2021/12/19 07:41:37;;;;;;;19.63;10.70;;;;;;;0.36;100.00;95043.78;5096810;28;20200;-70
2021/12/19 07:44:08;;;;;;;35.23;16.90;;;;;;;0.29;100.00;95041.97;5091803;28;20296;-70
2021/12/19 07:46:36;;;;;;;30.47;12.80;;;;;;;0.18;100.00;95042.16;5091559;28;20764;-71
2021/12/19 07:49:04;;;;;;;41.93;21.10;;;;;;;0.25;100.00;95044.00;5091401;28;20211;-72
2021/12/19 07:51:33;;;;;;;31.57;16.03;;;;;;;0.41;100.00;95038.22;5091600;28;20214;-70
2021/12/19 07:54:02;;;;;;;36.63;17.70;;;;;;;0.55;100.00;95038.50;5090502;28;20231;-71
2021/12/19 07:56:31;;;;;;;41.77;20.60;;;;;;;0.39;100.00;95035.00;5090779;28;20293;-72
2021/12/19 07:59:00;;;;;;;31.77;16.77;;;;;;;0.36;100.00;95030.19;5090339;28;20212;-70
2021/12/19 08:01:29;;;;;;;34.37;18.10;;;;;;;0.42;100.00;95037.28;5092875;28;20201;-70
2021/12/19 08:03:57;;;;;;;38.53;19.47;;;;;;;0.52;100.00;95036.25;5090208;28;20208;-71
2021/12/19 08:06:26;;;;;;;32.33;17.67;;;;;;;0.65;100.00;95027.41;5094759;28;20208;-71
2021/12/19 08:08:57;;;;;;;45.40;22.00;;;;;;;0.61;100.00;95021.00;5098864;28;20212;-72
2021/12/19 08:11:43;;;;;;;33.47;17.40;;;;;;;0.49;100.00;95016.09;5092493;28;20307;-70
2021/12/19 08:14:14;;;;;;;40.63;21.53;;;;;;;0.52;100.00;94999.63;5092091;28;20204;-73
2021/12/19 08:16:44;;;;;;;39.30;21.67;;;;;;;0.72;100.00;95001.09;5090505;28;20201;-71
2021/12/19 08:19:12;;;;;;;49.17;24.53;;;;;;;0.83;100.00;94997.47;5087732;28;20196;-72
2021/12/19 08:21:41;;;;;;;41.57;22.50;;;;;;;0.69;100.00;94998.84;5093953;28;20197;-71
2021/12/19 08:24:13;;;;;;;27.77;15.60;;;;;;;0.62;100.00;94997.81;5089807;28;20224;-71
2021/12/19 08:26:42;;;;;;;40.73;18.73;;;;;;;0.69;100.00;94993.72;5092471;28;20216;-71
2021/12/19 08:29:12;;;;;;;32.63;18.20;;;;;;;0.85;100.00;94983.59;5090465;28;20250;-72
2021/12/19 08:31:41;;;;;;;41.27;18.13;;;;;;;0.97;100.00;94979.81;5091079;28;20201;-73
2021/12/19 08:34:10;;;;;;;42.80;21.03;;;;;;;0.88;100.00;94977.38;5091472;28;20201;-74
2021/12/19 08:36:38;;;;;;;41.80;20.93;;;;;;;0.68;100.00;94981.88;5091345;28;20209;-73
2021/12/19 08:39:12;;;;;;;42.93;22.53;;;;;;;0.81;100.00;94987.38;5092129;28;20268;-82
2021/12/19 08:41:41;;;;;;;56.57;25.93;;;;;;;0.79;100.00;94968.03;5097375;28;20208;-75
2021/12/19 08:44:10;;;;;;;48.83;23.63;;;;;;;0.94;100.00;94985.25;5090854;28;20257;-76
2021/12/19 08:46:40;;;;;;;40.97;20.63;;;;;;;0.81;100.00;94992.50;5090460;28;20297;-75
2021/12/19 08:49:09;;;;;;;31.63;17.27;;;;;;;0.64;100.00;94977.19;5094624;28;20200;-75
2021/12/19 08:51:38;;;;;;;36.27;18.53;;;;;;;0.78;100.00;94985.13;5094624;28;20231;-75
2021/12/19 08:54:06;;;;;;;53.17;26.27;;;;;;;0.94;100.00;94994.66;5091430;28;20654;-74
2021/12/19 08:56:35;;;;;;;42.17;20.80;;;;;;;0.92;99.91;94992.28;5097928;28;20204;-76
2021/12/19 08:59:05;;;;;;;34.47;19.33;;;;;;;0.81;100.00;94984.06;5089530;28;20212;-77
2021/12/19 09:01:34;;;;;;;40.60;20.63;;;;;;;0.78;100.00;94984.34;5097451;28;20220;-76
2021/12/19 09:04:03;;;;;;;50.90;25.80;;;;;;;0.88;100.00;94983.28;5090112;28;20280;-75
2021/12/19 09:06:34;;;;;;;46.03;23.47;;;;;;;1.04;100.00;94982.56;5091327;28;20196;-76
2021/12/19 09:09:03;;;;;;;32.90;17.23;;;;;;;0.93;100.00;94960.59;5090056;28;20195;-75
2021/12/19 09:11:32;;;;;;;37.40;20.87;;;;;;;0.88;100.00;94972.25;5087656;28;20276;-76
2021/12/19 09:14:01;;;;;;;33.07;18.03;;;;;;;0.79;100.00;94966.28;5092274;28;20234;-74
2021/12/19 09:16:29;;;;;;;42.77;23.83;;;;;;;0.81;100.00;94964.38;5090630;28;20250;-75
2021/12/19 09:18:58;;;;;;;35.87;19.77;;;;;;;1.05;100.00;94967.06;5089114;28;20579;-75
2021/12/19 09:21:29;;;;;;;37.57;20.67;;;;;;;1.08;100.00;94966.78;5088832;28;20212;-76
2021/12/19 09:23:57;;;;;;;28.90;14.03;;;;;;;1.04;100.00;94967.22;5090212;28;20281;-76
2021/12/19 09:26:25;;;;;;;31.10;17.10;;;;;;;0.85;100.00;94959.75;5089321;28;20254;-78
2021/12/19 09:28:53;;;;;;;37.70;19.23;;;;;;;0.91;100.00;94949.72;5089420;28;20211;-77
2021/12/19 09:31:23;;;;;;;48.17;23.07;;;;;;;0.95;100.00;94933.09;5089646;28;20201;-76
2021/12/19 09:33:50;;;;;;;37.93;18.50;;;;;;;1.08;100.00;94936.06;5089328;28;20208;-77
2021/12/19 09:36:17;;;;;;;38.70;19.67;;;;;;;0.99;100.00;94934.44;5086570;28;20268;-76
2021/12/19 09:38:50;;;;;;;41.67;22.37;;;;;;;0.80;100.00;94924.41;5089975;28;20204;-76
2021/12/19 09:41:28;;;;;;;50.23;23.00;;;;;;;0.95;100.00;94929.78;5086795;28;20196;-76
2021/12/19 09:43:58;;;;;;;46.23;22.57;;;;;;;0.87;100.00;94906.69;5089235;28;20233;-79
2021/12/19 09:46:31;;;;;;;38.73;19.83;;;;;;;1.07;100.00;94916.53;5098450;28;20196;-84
2021/12/19 09:48:59;;;;;;;47.90;22.27;;;;;;;1.01;100.00;94903.59;5091213;28;20294;-76
2021/12/19 09:51:27;;;;;;;39.60;21.63;;;;;;;0.98;100.00;94909.00;5092892;28;20231;-76
2021/12/19 09:53:57;;;;;;;50.03;23.90;;;;;;;1.04;100.00;94906.63;5088948;28;20211;-75
2021/12/19 09:56:26;;;;;;;47.33;24.50;;;;;;;1.06;100.00;94883.44;5094050;28;20253;-78
2021/12/19 09:58:54;;;;;;;44.40;23.57;;;;;;;1.20;100.00;94890.53;5087194;28;20992;-76
2021/12/19 10:01:23;;;;;;;43.80;21.77;;;;;;;1.17;100.00;94882.34;5088037;28;20225;-76
2021/12/19 10:03:51;;;;;;;36.07;18.57;;;;;;;1.02;100.00;94877.84;5086109;28;20782;-78
2021/12/19 10:06:22;;;;;;;33.13;18.13;;;;;;;1.04;100.00;94862.31;5084723;28;20273;-76
2021/12/19 10:09:08;;;;;;;41.57;23.23;;;;;;;1.17;100.00;94865.25;5087373;28;20204;-82
2021/12/19 10:11:58;;;;;;;38.20;21.20;;;;;;;1.25;100.00;94864.47;5088435;28;20276;-85
2021/12/19 10:14:31;;;;;;;35.33;21.33;;;;;;;0.92;100.00;94859.25;5084825;28;20207;-75
2021/12/19 10:17:01;;;;;;;32.80;17.70;;;;;;;0.80;100.00;94844.34;5086955;28;20274;-75
2021/12/19 10:19:47;;;;;;;30.13;15.77;;;;;;;0.92;100.00;94849.03;5088219;28;20206;-76
2021/12/19 10:22:29;;;;;;;25.23;13.60;;;;;;;1.07;100.00;94844.91;5088925;28;20196;-75
2021/12/19 10:25:00;;;;;;;23.33;13.83;;;;;;;1.12;100.00;94841.91;5094179;28;20251;-75
2021/12/19 10:27:37;;;;;;;36.40;16.53;;;;;;;0.98;100.00;94833.03;5088584;28;20205;-75
2021/12/19 10:30:12;;;;;;;24.53;13.97;;;;;;;1.09;100.00;94837.91;5087951;28;20223;-76
2021/12/19 10:33:04;;;;;;;33.53;17.73;;;;;;;1.09;100.00;94834.53;5088642;28;20250;-75
2021/12/19 10:35:34;;;;;;;40.90;20.27;;;;;;;1.14;100.00;94832.28;5087642;28;20719;-74
2021/12/19 10:38:05;;;;;;;34.67;18.97;;;;;;;1.17;100.00;94828.63;5087469;28;20196;-76
2021/12/19 10:40:34;;;;;;;39.33;22.17;;;;;;;0.95;100.00;94823.13;5088056;28;20266;-75
2021/12/19 10:43:07;;;;;;;41.63;23.17;;;;;;;0.92;100.00;94803.00;5090396;28;20196;-75
2021/12/19 10:45:43;;;;;;;39.17;19.77;;;;;;;1.17;100.00;94810.72;5088807;28;20181;-77
2021/12/19 10:48:25;;;;;;;36.10;19.47;;;;;;;1.33;100.00;94814.09;5085079;28;20670;-76
2021/12/19 10:50:58;;;;;;;38.87;19.60;;;;;;;1.20;100.00;94811.19;5095720;28;20201;-74
2021/12/19 10:53:30;;;;;;;37.23;20.40;;;;;;;1.04;100.00;94809.41;5088547;28;20192;-74
2021/12/19 10:55:59;;;;;;;28.83;17.13;;;;;;;1.05;100.00;94794.84;5089114;28;20203;-75
2021/12/19 10:58:37;;;;;;;34.07;17.00;;;;;;;1.14;100.00;94791.34;5095017;28;20224;-74
2021/12/19 11:01:26;;;;;;;36.07;19.57;;;;;;;1.31;100.00;94792.97;5093137;28;20829;-75
2021/12/19 11:04:03;;;;;;;55.73;26.47;;;;;;;1.28;100.00;94795.84;5088949;28;20236;-75
2021/12/19 11:06:34;;;;;;;52.53;26.47;;;;;;;1.19;100.00;94783.19;5089363;28;20683;-74
2021/12/19 11:09:06;;;;;;;51.53;27.23;;;;;;;1.20;100.00;94783.06;5086528;28;20205;-75
2021/12/19 11:11:46;;;;;;;44.53;22.50;;;;;;;1.35;100.00;94778.13;5087678;28;20189;-74
2021/12/19 11:14:17;;;;;;;37.87;21.93;;;;;;;1.39;100.00;94776.81;5085164;28;20219;-73
2021/12/19 11:16:47;;;;;;;44.47;23.00;;;;;;;1.21;100.00;94766.75;5086326;28;20189;-76
2021/12/19 11:19:14;;;;;;;40.53;21.40;;;;;;;1.17;100.00;94772.31;5085047;28;20217;-75
2021/12/19 11:21:42;;;;;;;32.93;17.97;;;;;;;1.21;100.00;94753.16;5087480;28;20307;-75
2021/12/19 11:24:13;;;;;;;42.13;22.90;;;;;;;1.39;100.00;94761.47;5088566;28;20232;-74
2021/12/19 11:26:43;;;;;;;40.80;23.00;;;;;;;1.47;100.00;94756.38;5089770;28;20308;-73
2021/12/19 11:29:12;;;;;;;59.70;24.77;;;;;;;1.42;100.00;94753.47;5087829;28;20191;-74
2021/12/19 11:31:45;;;;;;;51.80;24.67;;;;;;;1.23;100.00;94757.16;5088142;28;20197;-73
2021/12/19 11:34:25;;;;;;;50.53;23.90;;;;;;;1.35;100.00;94755.88;5085407;28;20197;-74
2021/12/19 11:37:09;;;;;;;43.77;21.33;;;;;;;1.41;100.00;94759.56;5088149;28;20320;-74
2021/12/19 11:39:41;;;;;;;42.93;21.17;;;;;;;1.46;100.00;94754.75;5085413;28;20207;-73
2021/12/19 11:42:15;;;;;;;38.83;21.87;;;;;;;1.07;100.00;94736.63;5090652;28;20667;-73
2021/12/19 11:44:58;;;;;;;53.77;26.20;;;;;;;1.17;100.00;94751.84;5091712;28;20217;-74
2021/12/19 11:47:49;;;;;;;46.73;23.87;;;;;;;1.35;100.00;94732.03;5090644;28;20189;-74
2021/12/19 11:50:25;;;;;;;31.43;17.40;;;;;;;1.32;100.00;94730.59;5087963;28;20192;-75
2021/12/19 11:52:56;;;;;;;39.53;19.97;;;;;;;1.43;100.00;94719.25;5089750;28;20200;-74
2021/12/19 11:55:34;;;;;;;39.10;20.33;;;;;;;1.51;100.00;94716.66;5092252;28;20200;-74
2021/12/19 11:58:28;;;;;;;36.43;19.07;;;;;;;1.61;100.00;94725.00;5090419;28;20254;-74
2021/12/19 12:01:03;;;;;;;43.20;22.17;;;;;;;1.69;100.00;94714.72;5089782;28;20227;-73
2021/12/19 12:03:42;;;;;;;54.80;25.20;;;;;;;1.69;100.00;94704.50;5090404;28;20274;-72
2021/12/19 12:06:38;;;;;;;46.03;22.83;;;;;;;1.65;100.00;94701.44;5089798;28;20281;-78
2021/12/19 12:09:27;;;;;;;47.53;23.17;;;;;;;1.66;100.00;94699.69;5091052;28;20208;-72
2021/12/19 12:12:14;;;;;;;47.37;23.77;;;;;;;1.64;100.00;94694.75;5089861;28;20223;-72
2021/12/19 12:14:53;;;;;;;42.20;19.93;;;;;;;1.63;100.00;94687.22;5091479;28;20207;-73
2021/12/19 12:17:28;;;;;;;41.10;21.40;;;;;;;1.53;100.00;94686.59;5090247;28;20193;-71
2021/12/19 12:19:58;;;;;;;39.63;20.17;;;;;;;1.63;100.00;94685.47;5091594;28;20619;-72
2021/12/19 12:22:45;;;;;;;44.50;22.53;;;;;;;1.57;100.00;94683.53;5091871;28;20228;-71
2021/12/19 12:25:17;;;;;;;57.03;26.10;;;;;;;1.61;100.00;94689.16;5088164;28;20581;-72
2021/12/19 12:27:52;;;;;;;49.37;22.90;;;;;;;1.60;100.00;94672.16;5091541;28;20582;-72
2021/12/19 12:30:26;;;;;;;44.97;21.27;;;;;;;1.59;100.00;94668.00;5090033;28;20295;-71